BCN weather

Barcelona International Airport
Barcelona, Catalonia, Spain

Public forecast

Using degrees Celsius for public forecast. Weather courtesy of forecast.io.

METAR (pilot weather report)

Retrieved 2019/02/17 14:00 UTC (9 minutes ago):

LEBL 171400Z 18006KT 130V210 CAVOK 13/08 Q1025 NOSIG

TAF (pilot weather forecast)

Retrieved 2019/02/17 12:27 UTC (2 hours ago):

TAF LEBL 171100Z 1712/1812 35007KT 9999 FEW020 TX15/1712Z TN06/1807Z BECMG 1712/1713 13006KT BECMG 1718/1721 31008KT PROB30 TEMPO 1719/1802 4000 BR BKN006